TRA852 EHAM-LIPE
Flight info
| Callsign | TRA852 |
|---|---|
| Flight time | 1h 31m |
| Altitude | 37000 |
| Route | EDUPO Z739 MISGO DCT ASBON DCT TUSUK DCT ULNOK L607 ABUKA DCT TEDGO DCT BATUB DCT TIRUL M738 NATAG DCT LORLO DCT ADOSA/N0366F190 M738 BENUS |
| Aircraft | A320/M-SDE3FGHIRWY/LB1 |
Departure
| Time | 2026-04-27 21:31 |
|---|---|
| Airport | Amsterdam Airport Schiphol (EHAM) |
Arrival
| Time | 2026-04-27 23:02 |
|---|---|
| Airport | Bologna Guglielmo Marconi Airport (LIPE) |
| Time | Latitude | Longitude | Altitude | Speed | Heading |
|---|---|---|---|---|---|
| 2026-04-27 20:28 | 52.30442 | 4.76321 | -1 ft | 0 kts | 238° |
| 2026-04-27 21:14 | 52.30443 | 4.76325 | -1 ft | 3 kts | 238° |
| 2026-04-27 21:14 | 52.30457 | 4.76362 | -1 ft | 4 kts | 234° |
| 2026-04-27 21:15 | 52.30478 | 4.76386 | -1 ft | 1 kts | 159° |
| 2026-04-27 21:19 | 52.30472 | 4.76394 | -1 ft | 4 kts | 142° |
| 2026-04-27 21:19 | 52.30431 | 4.76443 | -1 ft | 9 kts | 147° |
| 2026-04-27 21:19 | 52.30374 | 4.76503 | -1 ft | 11 kts | 147° |
| 2026-04-27 21:20 | 52.30249 | 4.76408 | -1 ft | 14 kts | 238° |
| 2026-04-27 21:20 | 52.30197 | 4.76269 | -1 ft | 15 kts | 238° |
| 2026-04-27 21:20 | 52.30138 | 4.76112 | -1 ft | 17 kts | 238° |
| 2026-04-27 21:20 | 52.30072 | 4.75939 | -1 ft | 19 kts | 238° |
| 2026-04-27 21:21 | 52.29999 | 4.75746 | -1 ft | 21 kts | 238° |
| 2026-04-27 21:21 | 52.29920 | 4.75543 | -1 ft | 22 kts | 237° |
| 2026-04-27 21:21 | 52.29837 | 4.75326 | -1 ft | 20 kts | 241° |
| 2026-04-27 21:21 | 52.29861 | 4.75159 | -1 ft | 17 kts | 311° |
| 2026-04-27 21:22 | 52.29943 | 4.75008 | -1 ft | 19 kts | 312° |
| 2026-04-27 21:22 | 52.30038 | 4.74839 | -1 ft | 21 kts | 307° |
| 2026-04-27 21:22 | 52.30129 | 4.74663 | 9 ft | 18 kts | 312° |
| 2026-04-27 21:22 | 52.30208 | 4.74516 | 10 ft | 16 kts | 310° |
| 2026-04-27 21:23 | 52.30260 | 4.74417 | 10 ft | 11 kts | 311° |
| 2026-04-27 21:23 | 52.30328 | 4.74293 | -1 ft | 21 kts | 313° |
| 2026-04-27 21:23 | 52.30455 | 4.74196 | -1 ft | 22 kts | 4° |
| 2026-04-27 21:23 | 52.30612 | 4.74212 | -1 ft | 23 kts | 4° |
| 2026-04-27 21:24 | 52.30779 | 4.74228 | -1 ft | 25 kts | 3° |
| 2026-04-27 21:24 | 52.30954 | 4.74243 | -1 ft | 26 kts | 3° |
| 2026-04-27 21:24 | 52.31137 | 4.74260 | -1 ft | 27 kts | 3° |
| 2026-04-27 21:24 | 52.31326 | 4.74283 | -1 ft | 28 kts | 4° |
| 2026-04-27 21:25 | 52.31522 | 4.74298 | -1 ft | 29 kts | 3° |
| 2026-04-27 21:25 | 52.31724 | 4.74315 | -1 ft | 29 kts | 4° |
| 2026-04-27 21:25 | 52.31922 | 4.74334 | -1 ft | 24 kts | 4° |
| 2026-04-27 21:25 | 52.32023 | 4.74277 | -1 ft | 17 kts | 296° |
| 2026-04-27 21:26 | 52.32036 | 4.74070 | -2 ft | 20 kts | 274° |
| 2026-04-27 21:26 | 52.32043 | 4.73833 | -1 ft | 22 kts | 273° |
| 2026-04-27 21:26 | 52.32053 | 4.73578 | -1 ft | 24 kts | 274° |
| 2026-04-27 21:26 | 52.32109 | 4.73327 | -1 ft | 25 kts | 319° |
| 2026-04-27 21:27 | 52.32248 | 4.73135 | -1 ft | 27 kts | 320° |
| 2026-04-27 21:27 | 52.32393 | 4.72931 | -1 ft | 28 kts | 319° |
| 2026-04-27 21:27 | 52.32546 | 4.72716 | -1 ft | 30 kts | 320° |
| 2026-04-27 21:27 | 52.32702 | 4.72482 | -1 ft | 31 kts | 313° |
| 2026-04-27 21:28 | 52.32848 | 4.72210 | -1 ft | 32 kts | 311° |
| 2026-04-27 21:28 | 52.33000 | 4.71928 | -1 ft | 34 kts | 311° |
| 2026-04-27 21:28 | 52.33143 | 4.71623 | -1 ft | 34 kts | 282° |
| 2026-04-27 21:28 | 52.33119 | 4.71462 | -1 ft | 10 kts | 268° |
| 2026-04-27 21:29 | 52.33162 | 4.71369 | -1 ft | 12 kts | 311° |
| 2026-04-27 21:29 | 52.33222 | 4.71259 | -1 ft | 14 kts | 311° |
| 2026-04-27 21:29 | 52.33294 | 4.71126 | -1 ft | 17 kts | 312° |
| 2026-04-27 21:29 | 52.33383 | 4.70975 | -2 ft | 20 kts | 315° |
| 2026-04-27 21:30 | 52.33436 | 4.70948 | -2 ft | 0 kts | 1° |
| 2026-04-27 21:30 | 52.33506 | 4.70951 | -2 ft | 38 kts | 1° |
| 2026-04-27 21:30 | 52.33995 | 4.70998 | -1 ft | 105 kts | 3° |
| 2026-04-27 21:30 | 52.34948 | 4.71076 | 12 ft | 165 kts | 6° |
| 2026-04-27 21:31 | 52.36153 | 4.71156 | 627 ft | 178 kts | 6° |
| 2026-04-27 21:31 | 52.37419 | 4.71301 | 1436 ft | 184 kts | 7° |
| 2026-04-27 21:31 | 52.38693 | 4.71375 | 2167 ft | 182 kts | 3° |
| 2026-04-27 21:31 | 52.39968 | 4.71304 | 2926 ft | 189 kts | 359° |
| 2026-04-27 21:32 | 52.41337 | 4.71198 | 3710 ft | 206 kts | 359° |
| 2026-04-27 21:32 | 52.42829 | 4.71156 | 4460 ft | 226 kts | 4° |
| 2026-04-27 21:32 | 52.44479 | 4.71408 | 5154 ft | 248 kts | 7° |
| 2026-04-27 21:32 | 52.46247 | 4.71767 | 5923 ft | 268 kts | 7° |
| 2026-04-27 21:33 | 52.48212 | 4.72138 | 6186 ft | 302 kts | 6° |
| 2026-04-27 21:33 | 52.50404 | 4.72519 | 6243 ft | 323 kts | 9° |
| 2026-04-27 21:33 | 52.52376 | 4.73797 | 6250 ft | 293 kts | 36° |
| 2026-04-27 21:33 | 52.53641 | 4.76202 | 6249 ft | 272 kts | 61° |
| 2026-04-27 21:34 | 52.54181 | 4.79148 | 6250 ft | 272 kts | 86° |
| 2026-04-27 21:34 | 52.54012 | 4.82249 | 6344 ft | 278 kts | 104° |
| 2026-04-27 21:34 | 52.53254 | 4.85167 | 6946 ft | 279 kts | 121° |
| 2026-04-27 21:34 | 52.52026 | 4.87629 | 7501 ft | 282 kts | 139° |
| 2026-04-27 21:35 | 52.50465 | 4.89526 | 8300 ft | 283 kts | 146° |
| 2026-04-27 21:35 | 52.48823 | 4.91418 | 8998 ft | 287 kts | 146° |
| 2026-04-27 21:35 | 52.47195 | 4.93306 | 9200 ft | 287 kts | 146° |
| 2026-04-27 21:35 | 52.45584 | 4.95184 | 9607 ft | 289 kts | 146° |
| 2026-04-27 21:36 | 52.43948 | 4.97091 | 10418 ft | 291 kts | 146° |
| 2026-04-27 21:36 | 52.42222 | 4.99095 | 10691 ft | 312 kts | 146° |
| 2026-04-27 21:36 | 52.40382 | 5.01221 | 10889 ft | 332 kts | 146° |
| 2026-04-27 21:36 | 52.38497 | 5.03398 | 11420 ft | 339 kts | 146° |
| 2026-04-27 21:37 | 52.36539 | 5.05662 | 12090 ft | 342 kts | 145° |
| 2026-04-27 21:37 | 52.34582 | 5.07925 | 12771 ft | 345 kts | 144° |
| 2026-04-27 21:37 | 52.32782 | 5.10460 | 13432 ft | 349 kts | 134° |
| 2026-04-27 21:37 | 52.31134 | 5.13460 | 14125 ft | 351 kts | 132° |
| 2026-04-27 21:38 | 52.29502 | 5.16444 | 14707 ft | 354 kts | 133° |
| 2026-04-27 21:38 | 52.27867 | 5.19420 | 15268 ft | 358 kts | 133° |
| 2026-04-27 21:38 | 52.26177 | 5.22492 | 15808 ft | 362 kts | 133° |
| 2026-04-27 21:38 | 52.24495 | 5.25585 | 16327 ft | 367 kts | 130° |
| 2026-04-27 21:39 | 52.23003 | 5.28931 | 16834 ft | 372 kts | 127° |
| 2026-04-27 21:39 | 52.21484 | 5.32439 | 17368 ft | 376 kts | 127° |
| 2026-04-27 21:39 | 52.19972 | 5.35927 | 17916 ft | 380 kts | 127° |
| 2026-04-27 21:39 | 52.18494 | 5.39320 | 18435 ft | 384 kts | 127° |
| 2026-04-27 21:40 | 52.16940 | 5.42885 | 18932 ft | 387 kts | 127° |
| 2026-04-27 21:40 | 52.15372 | 5.46480 | 19446 ft | 391 kts | 127° |
| 2026-04-27 21:40 | 52.13792 | 5.50105 | 19984 ft | 394 kts | 127° |
| 2026-04-27 21:40 | 52.12197 | 5.53758 | 20507 ft | 397 kts | 127° |
| 2026-04-27 21:41 | 52.10594 | 5.57427 | 21030 ft | 400 kts | 128° |
| 2026-04-27 21:41 | 52.08971 | 5.61125 | 21529 ft | 403 kts | 128° |
| 2026-04-27 21:41 | 52.07335 | 5.64845 | 22017 ft | 406 kts | 128° |
| 2026-04-27 21:41 | 52.05630 | 5.68525 | 22494 ft | 408 kts | 134° |
| 2026-04-27 21:42 | 52.03767 | 5.72006 | 22968 ft | 410 kts | 134° |
| 2026-04-27 21:42 | 52.01884 | 5.75519 | 23418 ft | 414 kts | 134° |
| 2026-04-27 21:42 | 51.99988 | 5.79049 | 23861 ft | 417 kts | 134° |
| 2026-04-27 21:42 | 51.98072 | 5.82616 | 24227 ft | 420 kts | 135° |
| 2026-04-27 21:43 | 51.96149 | 5.86197 | 24590 ft | 423 kts | 134° |
| 2026-04-27 21:43 | 51.94211 | 5.89814 | 24951 ft | 426 kts | 135° |
| 2026-04-27 21:43 | 51.92264 | 5.93447 | 25308 ft | 428 kts | 135° |
| 2026-04-27 21:43 | 51.90303 | 5.97106 | 25657 ft | 431 kts | 135° |
| 2026-04-27 21:44 | 51.88331 | 6.00776 | 26002 ft | 433 kts | 135° |
| 2026-04-27 21:44 | 51.86341 | 6.04469 | 26347 ft | 436 kts | 135° |
| 2026-04-27 21:44 | 51.84343 | 6.08174 | 26675 ft | 438 kts | 135° |
| 2026-04-27 21:44 | 51.82331 | 6.11883 | 27011 ft | 440 kts | 135° |
| 2026-04-27 21:45 | 51.80301 | 6.15607 | 27350 ft | 442 kts | 136° |
| 2026-04-27 21:45 | 51.78255 | 6.19350 | 27677 ft | 445 kts | 136° |
| 2026-04-27 21:45 | 51.76205 | 6.23099 | 28016 ft | 447 kts | 136° |
| 2026-04-27 21:45 | 51.74139 | 6.26870 | 28342 ft | 449 kts | 136° |
| 2026-04-27 21:46 | 51.72061 | 6.30652 | 28663 ft | 452 kts | 136° |
| 2026-04-27 21:46 | 51.69975 | 6.34447 | 28980 ft | 454 kts | 136° |
| 2026-04-27 21:46 | 51.67875 | 6.38260 | 29287 ft | 456 kts | 136° |
| 2026-04-27 21:46 | 51.65765 | 6.42090 | 29634 ft | 457 kts | 136° |
| 2026-04-27 21:47 | 51.63655 | 6.45920 | 30080 ft | 457 kts | 136° |
| 2026-04-27 21:47 | 51.61572 | 6.49699 | 30470 ft | 456 kts | 136° |
| 2026-04-27 21:47 | 51.59432 | 6.53571 | 30815 ft | 457 kts | 136° |
| 2026-04-27 21:47 | 51.57316 | 6.57384 | 31135 ft | 458 kts | 136° |
| 2026-04-27 21:48 | 51.55192 | 6.61203 | 31447 ft | 459 kts | 136° |
| 2026-04-27 21:48 | 51.53061 | 6.65026 | 31769 ft | 460 kts | 136° |
| 2026-04-27 21:48 | 51.50920 | 6.68870 | 32104 ft | 461 kts | 136° |
| 2026-04-27 21:48 | 51.48811 | 6.72656 | 32430 ft | 462 kts | 136° |
| 2026-04-27 21:49 | 51.46642 | 6.76549 | 32765 ft | 463 kts | 137° |
| 2026-04-27 21:49 | 51.44484 | 6.80412 | 33103 ft | 464 kts | 137° |
| 2026-04-27 21:49 | 51.42331 | 6.84259 | 33440 ft | 464 kts | 138° |
| 2026-04-27 21:49 | 51.40035 | 6.87741 | 33779 ft | 458 kts | 147° |
| 2026-04-27 21:50 | 51.37417 | 6.90697 | 34111 ft | 452 kts | 154° |
| 2026-04-27 21:50 | 51.34777 | 6.93338 | 34389 ft | 453 kts | 154° |
| 2026-04-27 21:50 | 51.32103 | 6.96012 | 34663 ft | 453 kts | 154° |
| 2026-04-27 21:50 | 51.29428 | 6.98692 | 34941 ft | 454 kts | 154° |
| 2026-04-27 21:51 | 51.26758 | 7.01368 | 35205 ft | 454 kts | 153° |
| 2026-04-27 21:51 | 51.24079 | 7.04053 | 35466 ft | 454 kts | 153° |
| 2026-04-27 21:51 | 51.21372 | 7.06771 | 35726 ft | 454 kts | 153° |
| 2026-04-27 21:51 | 51.18729 | 7.09425 | 35974 ft | 455 kts | 153° |
| 2026-04-27 21:52 | 51.16054 | 7.12106 | 36219 ft | 455 kts | 153° |
| 2026-04-27 21:52 | 51.13379 | 7.14777 | 36426 ft | 455 kts | 153° |
| 2026-04-27 21:52 | 51.10689 | 7.17455 | 36663 ft | 455 kts | 153° |
| 2026-04-27 21:52 | 51.08003 | 7.20128 | 36906 ft | 455 kts | 152° |
| 2026-04-27 21:53 | 51.05322 | 7.22794 | 37102 ft | 456 kts | 152° |
| 2026-04-27 21:53 | 51.02622 | 7.25468 | 37170 ft | 459 kts | 152° |
| 2026-04-27 21:53 | 50.97139 | 7.30880 | 37160 ft | 467 kts | 152° |
| 2026-04-27 21:54 | 50.91616 | 7.36325 | 37171 ft | 469 kts | 152° |
| 2026-04-27 21:54 | 50.86077 | 7.41786 | 37159 ft | 469 kts | 152° |
| 2026-04-27 21:55 | 50.80572 | 7.47197 | 37158 ft | 469 kts | 152° |
| 2026-04-27 21:55 | 50.75022 | 7.52620 | 37160 ft | 469 kts | 153° |
| 2026-04-27 21:56 | 50.66727 | 7.60910 | 37174 ft | 471 kts | 150° |
| 2026-04-27 21:57 | 50.62196 | 7.65681 | 37178 ft | 471 kts | 150° |
| 2026-04-27 21:57 | 50.56740 | 7.71407 | 37183 ft | 471 kts | 151° |
| 2026-04-27 21:58 | 50.51269 | 7.77050 | 37182 ft | 470 kts | 151° |
| 2026-04-27 21:58 | 50.45785 | 7.82653 | 37183 ft | 470 kts | 151° |
| 2026-04-27 21:59 | 50.40300 | 7.88256 | 37179 ft | 470 kts | 151° |
| 2026-04-27 21:59 | 50.34820 | 7.93855 | 37177 ft | 470 kts | 151° |
| 2026-04-27 22:00 | 50.29343 | 7.99428 | 37181 ft | 470 kts | 151° |
| 2026-04-27 22:00 | 50.23865 | 8.04984 | 37193 ft | 469 kts | 151° |
| 2026-04-27 22:01 | 50.18467 | 8.10450 | 37208 ft | 470 kts | 151° |
| 2026-04-27 22:01 | 50.12980 | 8.15992 | 37222 ft | 469 kts | 152° |
| 2026-04-27 22:02 | 50.07422 | 8.21279 | 37226 ft | 468 kts | 154° |
| 2026-04-27 22:02 | 50.01798 | 8.26369 | 37230 ft | 468 kts | 154° |
| 2026-04-27 22:03 | 49.96177 | 8.31476 | 37226 ft | 468 kts | 154° |
| 2026-04-27 22:03 | 49.90569 | 8.36632 | 37216 ft | 469 kts | 154° |
| 2026-04-27 22:04 | 49.85027 | 8.41971 | 37194 ft | 472 kts | 146° |
| 2026-04-27 22:04 | 49.80125 | 8.48848 | 37167 ft | 475 kts | 140° |
| 2026-04-27 22:05 | 49.75270 | 8.55793 | 37143 ft | 473 kts | 146° |
| 2026-04-27 22:05 | 49.69665 | 8.60839 | 37133 ft | 462 kts | 165° |
| 2026-04-27 22:06 | 49.63522 | 8.63194 | 37135 ft | 454 kts | 175° |
| 2026-04-27 22:06 | 49.57341 | 8.64908 | 37128 ft | 454 kts | 175° |
| 2026-04-27 22:07 | 49.51096 | 8.66648 | 37128 ft | 455 kts | 175° |
| 2026-04-27 22:07 | 49.44928 | 8.69042 | 37124 ft | 463 kts | 162° |
| 2026-04-27 22:08 | 49.39030 | 8.73131 | 37119 ft | 465 kts | 160° |
| 2026-04-27 22:08 | 49.33130 | 8.77235 | 37115 ft | 466 kts | 160° |
| 2026-04-27 22:09 | 49.27217 | 8.81337 | 37117 ft | 467 kts | 161° |
| 2026-04-27 22:09 | 49.21297 | 8.85427 | 37116 ft | 467 kts | 161° |
| 2026-04-27 22:10 | 49.15372 | 8.89504 | 37118 ft | 467 kts | 161° |
| 2026-04-27 22:10 | 49.09446 | 8.93573 | 37118 ft | 467 kts | 161° |
| 2026-04-27 22:11 | 49.03518 | 8.97637 | 37123 ft | 467 kts | 161° |
| 2026-04-27 22:11 | 48.97617 | 9.01674 | 37118 ft | 468 kts | 161° |
| 2026-04-27 22:12 | 48.91678 | 9.05725 | 37117 ft | 468 kts | 161° |
| 2026-04-27 22:12 | 48.85737 | 9.09766 | 37112 ft | 468 kts | 161° |
| 2026-04-27 22:13 | 48.79792 | 9.13797 | 37112 ft | 468 kts | 161° |
| 2026-04-27 22:13 | 48.73853 | 9.17808 | 37109 ft | 468 kts | 161° |
| 2026-04-27 22:14 | 48.67898 | 9.21832 | 37111 ft | 468 kts | 160° |
| 2026-04-27 22:14 | 48.61937 | 9.25819 | 37109 ft | 466 kts | 163° |
| 2026-04-27 22:15 | 48.55827 | 9.28999 | 37112 ft | 464 kts | 166° |
| 2026-04-27 22:15 | 48.49728 | 9.32131 | 37119 ft | 464 kts | 166° |
| 2026-04-27 22:16 | 48.43624 | 9.35267 | 37112 ft | 463 kts | 166° |
| 2026-04-27 22:16 | 48.37558 | 9.38364 | 37126 ft | 463 kts | 166° |
| 2026-04-27 22:17 | 48.31410 | 9.41492 | 37125 ft | 463 kts | 166° |
| 2026-04-27 22:17 | 48.25348 | 9.44569 | 37123 ft | 463 kts | 166° |
| 2026-04-27 22:18 | 48.19235 | 9.47661 | 37124 ft | 463 kts | 166° |
| 2026-04-27 22:18 | 48.13124 | 9.50744 | 37126 ft | 464 kts | 165° |
| 2026-04-27 22:19 | 48.07002 | 9.53832 | 37128 ft | 464 kts | 165° |
| 2026-04-27 22:19 | 48.01005 | 9.57470 | 37123 ft | 470 kts | 153° |
| 2026-04-27 22:20 | 47.95562 | 9.62921 | 37119 ft | 472 kts | 148° |
| 2026-04-27 22:20 | 47.90166 | 9.68428 | 37117 ft | 473 kts | 149° |
| 2026-04-27 22:21 | 47.86020 | 9.72617 | 37117 ft | 473 kts | 148° |
| 2026-04-27 22:22 | 47.80594 | 9.78139 | 37119 ft | 473 kts | 148° |
| 2026-04-27 22:22 | 47.75160 | 9.83662 | 37117 ft | 473 kts | 148° |
| 2026-04-27 22:23 | 47.69727 | 9.89159 | 37118 ft | 473 kts | 148° |
| 2026-04-27 22:23 | 47.64282 | 9.94644 | 37120 ft | 473 kts | 148° |
| 2026-04-27 22:24 | 47.58834 | 10.00133 | 37123 ft | 473 kts | 148° |
| 2026-04-27 22:24 | 47.53385 | 10.05605 | 37124 ft | 473 kts | 148° |
| 2026-04-27 22:25 | 47.47931 | 10.11066 | 37125 ft | 473 kts | 148° |
| 2026-04-27 22:25 | 47.42473 | 10.16512 | 37120 ft | 473 kts | 148° |
| 2026-04-27 22:26 | 47.37013 | 10.21956 | 37120 ft | 474 kts | 148° |
| 2026-04-27 22:26 | 47.31553 | 10.27386 | 37122 ft | 474 kts | 148° |
| 2026-04-27 22:27 | 47.26074 | 10.32806 | 37131 ft | 475 kts | 148° |
| 2026-04-27 22:27 | 47.20585 | 10.38225 | 37134 ft | 475 kts | 148° |
| 2026-04-27 22:28 | 47.15106 | 10.43641 | 37133 ft | 474 kts | 148° |
| 2026-04-27 22:28 | 47.09629 | 10.49028 | 37132 ft | 473 kts | 148° |
| 2026-04-27 22:29 | 47.03890 | 10.53637 | 37131 ft | 468 kts | 163° |
| 2026-04-27 22:29 | 46.97705 | 10.56483 | 37131 ft | 466 kts | 166° |
| 2026-04-27 22:30 | 46.91504 | 10.59279 | 37138 ft | 467 kts | 166° |
| 2026-04-27 22:30 | 46.85294 | 10.62092 | 37144 ft | 467 kts | 166° |
| 2026-04-27 22:31 | 46.79092 | 10.64885 | 37151 ft | 467 kts | 166° |
| 2026-04-27 22:31 | 46.72886 | 10.67668 | 37139 ft | 466 kts | 166° |
| 2026-04-27 22:32 | 46.66623 | 10.70049 | 37150 ft | 465 kts | 171° |
| 2026-04-27 22:32 | 46.60303 | 10.71987 | 37153 ft | 464 kts | 172° |
| 2026-04-27 22:33 | 46.53978 | 10.73904 | 37168 ft | 465 kts | 171° |
| 2026-04-27 22:33 | 46.47667 | 10.75936 | 37177 ft | 464 kts | 171° |
| 2026-04-27 22:34 | 46.41372 | 10.78010 | 37197 ft | 463 kts | 170° |
| 2026-04-27 22:34 | 46.35091 | 10.80057 | 37204 ft | 463 kts | 171° |
| 2026-04-27 22:35 | 46.28817 | 10.82082 | 37210 ft | 462 kts | 171° |
| 2026-04-27 22:35 | 46.22534 | 10.84113 | 37208 ft | 462 kts | 171° |
| 2026-04-27 22:36 | 46.16270 | 10.86120 | 36645 ft | 459 kts | 170° |
| 2026-04-27 22:36 | 46.13124 | 10.87131 | 35328 ft | 464 kts | 170° |
| 2026-04-27 22:36 | 46.10023 | 10.88132 | 34841 ft | 449 kts | 170° |
| 2026-04-27 22:36 | 46.06997 | 10.89107 | 34038 ft | 443 kts | 171° |
| 2026-04-27 22:37 | 46.03997 | 10.90070 | 33202 ft | 440 kts | 171° |
| 2026-04-27 22:37 | 46.01021 | 10.91024 | 32768 ft | 436 kts | 171° |
| 2026-04-27 22:37 | 45.98072 | 10.91966 | 32232 ft | 434 kts | 170° |
| 2026-04-27 22:37 | 45.95112 | 10.92911 | 31712 ft | 433 kts | 171° |
| 2026-04-27 22:38 | 45.92177 | 10.93847 | 31185 ft | 432 kts | 170° |
| 2026-04-27 22:38 | 45.89248 | 10.94779 | 30658 ft | 431 kts | 171° |
| 2026-04-27 22:38 | 45.86324 | 10.95706 | 30122 ft | 430 kts | 170° |
| 2026-04-27 22:38 | 45.83408 | 10.96631 | 29561 ft | 428 kts | 170° |
| 2026-04-27 22:39 | 45.80513 | 10.97550 | 29048 ft | 424 kts | 170° |
| 2026-04-27 22:39 | 45.77680 | 10.98452 | 28534 ft | 422 kts | 170° |
| 2026-04-27 22:39 | 45.74827 | 10.99359 | 28035 ft | 419 kts | 170° |
| 2026-04-27 22:39 | 45.71987 | 11.00258 | 27523 ft | 417 kts | 170° |
| 2026-04-27 22:40 | 45.70077 | 11.00861 | 27195 ft | 416 kts | 170° |
| 2026-04-27 22:40 | 45.67250 | 11.01751 | 26704 ft | 414 kts | 170° |
| 2026-04-27 22:40 | 45.64444 | 11.02635 | 26228 ft | 412 kts | 170° |
| 2026-04-27 22:40 | 45.61641 | 11.03442 | 25783 ft | 410 kts | 172° |
| 2026-04-27 22:41 | 45.58843 | 11.04145 | 25335 ft | 408 kts | 173° |
| 2026-04-27 22:41 | 45.56052 | 11.04788 | 24902 ft | 406 kts | 173° |
| 2026-04-27 22:41 | 45.53263 | 11.05413 | 24467 ft | 405 kts | 173° |
| 2026-04-27 22:41 | 45.50481 | 11.06046 | 24034 ft | 404 kts | 173° |
| 2026-04-27 22:42 | 45.47710 | 11.06693 | 23591 ft | 404 kts | 173° |
| 2026-04-27 22:42 | 45.44941 | 11.07353 | 23107 ft | 402 kts | 173° |
| 2026-04-27 22:42 | 45.42192 | 11.08015 | 22667 ft | 400 kts | 172° |
| 2026-04-27 22:42 | 45.39455 | 11.08678 | 22212 ft | 397 kts | 172° |
| 2026-04-27 22:43 | 45.36740 | 11.09337 | 21751 ft | 395 kts | 172° |
| 2026-04-27 22:43 | 45.34044 | 11.09990 | 21296 ft | 392 kts | 172° |
| 2026-04-27 22:43 | 45.31358 | 11.10642 | 20805 ft | 390 kts | 172° |
| 2026-04-27 22:43 | 45.28690 | 11.11291 | 20333 ft | 388 kts | 172° |
| 2026-04-27 22:44 | 45.26036 | 11.11933 | 19852 ft | 386 kts | 172° |
| 2026-04-27 22:44 | 45.23396 | 11.12569 | 19376 ft | 384 kts | 172° |
| 2026-04-27 22:44 | 45.20788 | 11.13193 | 18894 ft | 372 kts | 172° |
| 2026-04-27 22:44 | 45.18281 | 11.13793 | 18439 ft | 358 kts | 172° |
| 2026-04-27 22:45 | 45.15864 | 11.14371 | 17954 ft | 346 kts | 172° |
| 2026-04-27 22:45 | 45.13539 | 11.14925 | 17526 ft | 333 kts | 172° |
| 2026-04-27 22:45 | 45.11274 | 11.15465 | 17104 ft | 330 kts | 172° |
| 2026-04-27 22:45 | 45.09016 | 11.16004 | 16695 ft | 331 kts | 172° |
| 2026-04-27 22:46 | 45.06745 | 11.16544 | 16272 ft | 330 kts | 172° |
| 2026-04-27 22:46 | 45.04472 | 11.17084 | 15773 ft | 332 kts | 172° |
| 2026-04-27 22:46 | 45.02227 | 11.17616 | 15377 ft | 331 kts | 172° |
| 2026-04-27 22:46 | 44.99924 | 11.18164 | 14954 ft | 331 kts | 171° |
| 2026-04-27 22:47 | 44.97658 | 11.18700 | 14521 ft | 330 kts | 171° |
| 2026-04-27 22:47 | 44.95394 | 11.19238 | 14098 ft | 330 kts | 171° |
| 2026-04-27 22:47 | 44.93126 | 11.19778 | 13649 ft | 330 kts | 171° |
| 2026-04-27 22:47 | 44.90900 | 11.20307 | 13211 ft | 328 kts | 171° |
| 2026-04-27 22:48 | 44.88622 | 11.20849 | 12786 ft | 327 kts | 171° |
| 2026-04-27 22:48 | 44.86419 | 11.21374 | 12372 ft | 325 kts | 171° |
| 2026-04-27 22:48 | 44.84191 | 11.21904 | 11944 ft | 324 kts | 171° |
| 2026-04-27 22:48 | 44.81977 | 11.22429 | 11527 ft | 322 kts | 171° |
| 2026-04-27 22:49 | 44.79768 | 11.22947 | 11095 ft | 321 kts | 172° |
| 2026-04-27 22:49 | 44.77552 | 11.23145 | 10687 ft | 319 kts | 184° |
| 2026-04-27 22:49 | 44.75555 | 11.22711 | 10277 ft | 319 kts | 196° |
| 2026-04-27 22:49 | 44.73473 | 11.21808 | 10142 ft | 308 kts | 200° |
| 2026-04-27 22:50 | 44.71657 | 11.20365 | 10014 ft | 296 kts | 223° |
| 2026-04-27 22:50 | 44.70475 | 11.18086 | 9860 ft | 285 kts | 248° |
| 2026-04-27 22:50 | 44.70091 | 11.15427 | 9733 ft | 275 kts | 272° |
| 2026-04-27 22:50 | 44.70483 | 11.12843 | 9508 ft | 269 kts | 294° |
| 2026-04-27 22:51 | 44.71319 | 11.10492 | 9195 ft | 269 kts | 297° |
| 2026-04-27 22:51 | 44.72172 | 11.08160 | 8875 ft | 268 kts | 297° |
| 2026-04-27 22:51 | 44.72958 | 11.05792 | 8558 ft | 267 kts | 285° |
| 2026-04-27 22:51 | 44.73049 | 11.03225 | 8247 ft | 265 kts | 257° |
| 2026-04-27 22:52 | 44.72287 | 11.00907 | 7921 ft | 263 kts | 229° |
| 2026-04-27 22:52 | 44.70855 | 10.99339 | 7601 ft | 262 kts | 206° |
| 2026-04-27 22:52 | 44.69218 | 10.98205 | 7265 ft | 263 kts | 206° |
| 2026-04-27 22:52 | 44.67543 | 10.97119 | 6710 ft | 272 kts | 197° |
| 2026-04-27 22:53 | 44.65639 | 10.97048 | 5984 ft | 281 kts | 162° |
| 2026-04-27 22:53 | 44.63995 | 10.98485 | 5232 ft | 282 kts | 131° |
| 2026-04-27 22:53 | 44.62899 | 11.00770 | 4488 ft | 284 kts | 116° |
| 2026-04-27 22:53 | 44.62261 | 11.03369 | 3855 ft | 280 kts | 98° |
| 2026-04-27 22:54 | 44.61895 | 11.05989 | 3444 ft | 268 kts | 113° |
| 2026-04-27 22:54 | 44.61021 | 11.08232 | 3098 ft | 257 kts | 120° |
| 2026-04-27 22:54 | 44.60173 | 11.10374 | 2769 ft | 246 kts | 117° |
| 2026-04-27 22:54 | 44.59421 | 11.12456 | 2536 ft | 231 kts | 116° |
| 2026-04-27 22:55 | 44.58738 | 11.14375 | 2497 ft | 211 kts | 116° |
| 2026-04-27 22:55 | 44.58089 | 11.16186 | 2490 ft | 204 kts | 116° |
| 2026-04-27 22:55 | 44.57466 | 11.17931 | 2505 ft | 202 kts | 116° |
| 2026-04-27 22:55 | 44.56838 | 11.19685 | 2506 ft | 201 kts | 117° |
| 2026-04-27 22:56 | 44.56082 | 11.21341 | 2498 ft | 200 kts | 140° |
| 2026-04-27 22:56 | 44.54835 | 11.22116 | 2505 ft | 199 kts | 178° |
| 2026-04-27 22:56 | 44.53511 | 11.21660 | 2509 ft | 199 kts | 215° |
| 2026-04-27 22:56 | 44.52667 | 11.20167 | 2510 ft | 200 kts | 253° |
| 2026-04-27 22:57 | 44.52578 | 11.18276 | 2420 ft | 196 kts | 277° |
| 2026-04-27 22:57 | 44.52807 | 11.16389 | 2034 ft | 195 kts | 282° |
| 2026-04-27 22:57 | 44.53320 | 11.14619 | 2024 ft | 199 kts | 297° |
| 2026-04-27 22:57 | 44.53983 | 11.12905 | 2014 ft | 201 kts | 298° |
| 2026-04-27 22:58 | 44.54650 | 11.11187 | 2015 ft | 200 kts | 298° |
| 2026-04-27 22:58 | 44.55326 | 11.09476 | 2009 ft | 200 kts | 303° |
| 2026-04-27 22:58 | 44.56377 | 11.08243 | 2010 ft | 200 kts | 341° |
| 2026-04-27 22:58 | 44.57738 | 11.08159 | 2015 ft | 200 kts | 17° |
| 2026-04-27 22:59 | 44.58908 | 11.09159 | 2014 ft | 199 kts | 50° |
| 2026-04-27 22:59 | 44.59495 | 11.10874 | 2031 ft | 192 kts | 83° |
| 2026-04-27 22:59 | 44.59343 | 11.12677 | 2024 ft | 187 kts | 114° |
| 2026-04-27 22:59 | 44.58767 | 11.14312 | 2006 ft | 187 kts | 117° |
| 2026-04-27 23:00 | 44.57606 | 11.17544 | 1647 ft | 183 kts | 117° |
| 2026-04-27 23:00 | 44.57047 | 11.19105 | 1407 ft | 174 kts | 117° |
| 2026-04-27 23:00 | 44.56522 | 11.20570 | 1193 ft | 162 kts | 118° |
| 2026-04-27 23:01 | 44.56035 | 11.21926 | 1003 ft | 152 kts | 118° |
| 2026-04-27 23:01 | 44.55570 | 11.23223 | 822 ft | 147 kts | 118° |
| 2026-04-27 23:01 | 44.55113 | 11.24501 | 635 ft | 146 kts | 118° |
| 2026-04-27 23:01 | 44.54669 | 11.25768 | 393 ft | 143 kts | 118° |
| 2026-04-27 23:02 | 44.54209 | 11.27043 | 274 ft | 156 kts | 120° |
| 2026-04-27 23:02 | 44.53727 | 11.28349 | 132 ft | 138 kts | 117° |
| 2026-04-27 23:02 | 44.53371 | 11.29346 | 129 ft | 89 kts | 116° |
| 2026-04-27 23:02 | 44.53168 | 11.29909 | 126 ft | 40 kts | 117° |
| 2026-04-27 23:03 | 44.53093 | 11.30118 | 123 ft | 21 kts | 117° |
| 2026-04-27 23:03 | 44.53026 | 11.30247 | 123 ft | 11 kts | 177° |
| 2026-04-27 23:03 | 44.52981 | 11.30165 | 128 ft | 12 kts | 264° |
| 2026-04-27 23:03 | 44.52976 | 11.30079 | 129 ft | 0 kts | 266° |
| 2026-04-27 23:04 | 44.52976 | 11.30078 | 130 ft | 1 kts | 266° |
| 2026-04-27 23:04 | 44.52975 | 11.30064 | 128 ft | 2 kts | 266° |
| 2026-04-27 23:04 | 44.52974 | 11.30024 | 128 ft | 7 kts | 268° |
| 2026-04-27 23:05 | 44.52972 | 11.29949 | 128 ft | 9 kts | 268° |
| 2026-04-27 23:05 | 44.52990 | 11.29857 | 127 ft | 11 kts | 297° |
| 2026-04-27 23:05 | 44.52978 | 11.29769 | 127 ft | 9 kts | 241° |
| 2026-04-27 23:05 | 44.52993 | 11.29699 | 129 ft | 9 kts | 290° |
| 2026-04-27 23:06 | 44.53021 | 11.29612 | 127 ft | 11 kts | 298° |
| 2026-04-27 23:06 | 44.53033 | 11.29553 | 127 ft | 3 kts | 201° |
| 2026-04-27 23:06 | 44.53021 | 11.29548 | 127 ft | 0 kts | 198° |
| 2026-04-27 23:06 | 44.53018 | 11.29541 | 129 ft | 2 kts | 239° |
| 2026-04-27 23:07 | 44.53081 | 11.29405 | 130 ft | 23 kts | 314° |
| 2026-04-27 23:07 | 44.53146 | 11.29280 | 130 ft | 16 kts | 296° |
| 2026-04-27 23:07 | 44.53131 | 11.29156 | 127 ft | 17 kts | 203° |
| 2026-04-27 23:07 | 44.53046 | 11.29101 | 128 ft | 9 kts | 206° |
| 2026-04-27 23:08 | 44.52997 | 11.29127 | 131 ft | 7 kts | 118° |
| 2026-04-27 23:08 | 44.52989 | 11.29147 | 127 ft | 0 kts | 116° |